Time;durP1;ratioP1;P1;durP2;ratioP2;P2;SDS_P1;SDS_P2;PMS_P1;PMS_P2;Temp;Humidity;BMP_temperature;BMP_pressure;BME280_temperature;BME280_humidity;BME280_pressure;Samples;Min_cycle;Max_cycle;Signal;HPM_P1;HPM_P2
2022/07/14 00:00:11;;;;;;;;;;;;;;;19.48;57.52;99798.56;5117264;28;20022;-71
2022/07/14 00:02:39;;;;;;;;;;;;;;;19.51;57.74;99798.44;5118143;28;19949;-70
2022/07/14 00:05:09;;;;;;;;;;;;;;;19.55;57.77;99800.03;5118388;28;20023;-71
2022/07/14 00:07:38;;;;;;;;;;;;;;;19.59;58.08;99801.63;5118115;28;19938;-70
2022/07/14 00:10:06;;;;;;;;;;;;;;;19.60;58.06;99803.31;5118024;28;20374;-70
2022/07/14 00:12:36;;;;;;;;;;;;;;;19.66;57.79;99800.50;5117900;28;19924;-71
2022/07/14 00:15:04;;;;;;;;;;;;;;;19.69;58.05;99802.97;5117888;28;19989;-70
2022/07/14 00:17:33;;;;;;;;;;;;;;;19.64;58.59;99791.94;5116642;28;20354;-69
2022/07/14 00:20:02;;;;;;;;;;;;;;;19.66;58.44;99803.09;5117802;28;19923;-70
2022/07/14 00:22:32;;;;;;;;;;;;;;;19.78;57.75;99797.47;5118056;28;20331;-70
2022/07/14 00:25:00;;;;;;;;;;;;;;;19.86;57.27;99795.44;5118225;28;20326;-70
2022/07/14 00:27:29;;;;;;;;;;;;;;;19.90;56.73;99797.03;5117518;28;19924;-69
2022/07/14 00:29:57;;;;;;;;;;;;;;;19.99;56.00;99786.31;5117684;28;19924;-71
2022/07/14 00:32:26;;;;;;;;;;;;;;;20.04;54.82;99786.97;5116331;28;19966;-70
2022/07/14 00:34:57;;;;;;;;;;;;;;;20.06;54.00;99792.94;5116270;28;19931;-71
2022/07/14 00:37:26;;;;;;;;;;;;;;;20.08;53.48;99785.13;5117551;28;19927;-71
2022/07/14 00:39:55;;;;;;;;;;;;;;;20.05;53.24;99788.69;5117398;28;19998;-70
2022/07/14 00:42:28;;;;;;;;;;;;;;;20.15;53.21;99785.75;5116244;28;19924;-71
2022/07/14 00:44:57;;;;;;;;;;;;;;;20.18;52.87;99798.59;5116162;28;19973;-71
2022/07/14 00:47:25;;;;;;;;;;;;;;;20.18;53.01;99796.81;5117248;28;19930;-69
2022/07/14 00:49:54;;;;;;;;;;;;;;;20.17;53.61;99797.75;5116064;28;19977;-71
2022/07/14 00:52:23;;;;;;;;;;;;;;;20.13;53.26;99782.38;5117106;28;19935;-70
2022/07/14 00:54:52;;;;;;;;;;;;;;;20.12;53.19;99785.84;5115961;28;19924;-69
2022/07/14 00:57:22;;;;;;;;;;;;;;;20.10;54.01;99778.16;5115953;28;19928;-69
2022/07/14 00:59:51;;;;;;;;;;;;;;;20.02;53.99;99781.00;5116641;28;19931;-69
2022/07/14 01:02:20;;;;;;;;;;;;;;;20.01;53.86;99779.31;5117012;28;19924;-70
2022/07/14 01:04:49;;;;;;;;;;;;;;;19.97;53.45;99782.94;5117565;28;19966;-70
2022/07/14 01:07:18;;;;;;;;;;;;;;;19.97;54.12;99777.75;5116957;28;19923;-69
2022/07/14 01:09:47;;;;;;;;;;;;;;;19.83;54.04;99774.81;5116855;28;19930;-69
2022/07/14 01:12:15;;;;;;;;;;;;;;;19.81;53.96;99771.44;5115561;28;19923;-70
2022/07/14 01:14:46;;;;;;;;;;;;;;;19.80;54.66;99774.94;5117119;28;19924;-69
2022/07/14 01:17:14;;;;;;;;;;;;;;;19.78;55.20;99775.88;5115542;28;19928;-69
2022/07/14 01:19:42;;;;;;;;;;;;;;;19.73;55.42;99770.88;5115472;28;19928;-70
2022/07/14 01:22:13;;;;;;;;;;;;;;;19.72;55.36;99771.81;5115448;28;19923;-70
2022/07/14 01:24:42;;;;;;;;;;;;;;;19.64;55.61;99771.22;5116652;28;19930;-72
2022/07/14 01:27:11;;;;;;;;;;;;;;;19.55;55.97;99773.28;5115121;28;19923;-70
2022/07/14 01:29:40;;;;;;;;;;;;;;;19.39;56.48;99767.78;5115386;28;19924;-71
2022/07/14 01:32:09;;;;;;;;;;;;;;;19.34;56.70;99774.84;5115146;28;20019;-70
2022/07/14 01:34:39;;;;;;;;;;;;;;;19.31;56.46;99774.97;5116788;28;19958;-71
2022/07/14 01:37:07;;;;;;;;;;;;;;;19.27;56.07;99769.03;5116557;28;20300;-69
2022/07/14 01:39:38;;;;;;;;;;;;;;;19.32;56.52;99771.47;5116304;28;19973;-70
2022/07/14 01:42:07;;;;;;;;;;;;;;;19.29;56.67;99771.59;5115097;28;19924;-70
2022/07/14 01:44:36;;;;;;;;;;;;;;;19.24;56.45;99768.31;5114964;28;19992;-70
2022/07/14 01:47:05;;;;;;;;;;;;;;;19.24;56.58;99768.31;5115192;28;19923;-70
2022/07/14 01:49:34;;;;;;;;;;;;;;;19.19;57.07;99768.47;5149268;27;19924;-71
2022/07/14 01:52:07;;;;;;;;;;;;;;;19.15;56.88;99769.47;5116050;28;19924;-70
2022/07/14 01:54:39;;;;;;;;;;;;;;;19.12;56.69;99768.75;5115150;28;19924;-72
2022/07/14 01:57:09;;;;;;;;;;;;;;;19.12;56.27;99760.97;5116252;28;19946;-70
2022/07/14 01:59:38;;;;;;;;;;;;;;;19.14;56.62;99766.94;5115037;28;19966;-69
2022/07/14 02:02:08;;;;;;;;;;;;;;;19.12;56.71;99772.16;5114658;28;19924;-71
2022/07/14 02:04:36;;;;;;;;;;;;;;;19.08;57.01;99767.97;5116406;28;20277;-71
2022/07/14 02:07:04;;;;;;;;;;;;;;;19.05;57.10;99762.09;5114460;28;19930;-71
2022/07/14 02:12:25;;;;;;;;;;;;;;;19.04;57.46;99765.56;5114842;28;19927;-70
2022/07/14 02:14:54;;;;;;;;;;;;;;;19.00;57.66;99769.16;5114685;28;19924;-70
2022/07/14 02:17:23;;;;;;;;;;;;;;;18.94;58.17;99769.34;5115482;28;19931;-71
2022/07/14 02:19:51;;;;;;;;;;;;;;;18.92;58.20;99768.53;5115729;28;20278;-71
2022/07/14 02:22:21;;;;;;;;;;;;;;;18.91;58.16;99766.88;5114954;28;20280;-71
2022/07/14 02:24:51;;;;;;;;;;;;;;;18.87;58.33;99767.84;5115416;28;19931;-70
2022/07/14 02:27:20;;;;;;;;;;;;;;;18.86;57.90;99761.81;5113953;28;19930;-71
2022/07/14 02:29:49;;;;;;;;;;;;;;;18.85;57.63;99772.25;5115338;28;19928;-70
2022/07/14 02:32:18;;;;;;;;;;;;;;;18.86;57.96;99776.53;5114090;28;19924;-69
2022/07/14 02:34:48;;;;;;;;;;;;;;;18.87;58.71;99773.03;5115529;28;19924;-71
2022/07/14 02:37:16;;;;;;;;;;;;;;;18.76;59.00;99775.97;5115166;28;19932;-70
2022/07/14 02:39:44;;;;;;;;;;;;;;;18.60;59.22;99773.03;5115004;28;19924;-72
2022/07/14 02:42:14;;;;;;;;;;;;;;;18.50;60.17;99774.19;5115058;28;20432;-69
2022/07/14 02:44:44;;;;;;;;;;;;;;;18.44;60.84;99789.03;5115042;28;19923;-72
2022/07/14 02:47:13;;;;;;;;;;;;;;;18.44;61.33;99784.72;5115357;28;19928;-69
2022/07/14 02:49:42;;;;;;;;;;;;;;;18.42;61.13;99794.25;5113714;28;19924;-71
2022/07/14 02:52:10;;;;;;;;;;;;;;;18.41;60.50;99783.94;5113761;28;20011;-70
2022/07/14 02:54:42;;;;;;;;;;;;;;;18.32;60.44;99777.34;5114994;28;19923;-70
2022/07/14 02:57:11;;;;;;;;;;;;;;;18.21;60.75;99776.78;5113752;28;19973;-70
2022/07/14 02:59:43;;;;;;;;;;;;;;;18.19;60.93;99776.00;5113595;28;19923;-68
2022/07/14 03:02:11;;;;;;;;;;;;;;;18.18;61.48;99771.75;5113646;28;19990;-72
2022/07/14 03:04:40;;;;;;;;;;;;;;;18.23;61.86;99781.94;5113765;28;19924;-70
2022/07/14 03:07:09;;;;;;;;;;;;;;;18.22;62.08;99788.84;5114640;28;19923;-70
2022/07/14 03:09:38;;;;;;;;;;;;;;;18.24;62.36;99781.88;5114580;28;20426;-70
2022/07/14 03:12:07;;;;;;;;;;;;;;;18.27;61.75;99786.97;5114921;28;20393;-70
2022/07/14 03:14:42;;;;;;;;;;;;;;;18.29;61.50;99780.00;5114673;28;19931;-70
2022/07/14 03:17:11;;;;;;;;;;;;;;;18.34;61.57;99778.13;5113410;28;19924;-68
2022/07/14 03:19:39;;;;;;;;;;;;;;;18.28;61.42;99773.16;5113260;28;19924;-69
2022/07/14 03:22:08;;;;;;;;;;;;;;;18.23;61.66;99769.88;5113280;28;19931;-70
2022/07/14 03:24:38;;;;;;;;;;;;;;;18.27;61.68;99771.47;5114255;28;19924;-69
2022/07/14 03:27:08;;;;;;;;;;;;;;;18.26;62.32;99776.69;5113574;28;20014;-71
2022/07/14 03:29:36;;;;;;;;;;;;;;;18.18;62.37;99770.91;5113471;28;20377;-70
2022/07/14 03:32:07;;;;;;;;;;;;;;;18.13;61.91;99768.44;5114393;28;19930;-69
2022/07/14 03:34:36;;;;;;;;;;;;;;;18.16;61.48;99773.53;5113447;28;20435;-70
2022/07/14 03:37:04;;;;;;;;;;;;;;;18.28;61.20;99780.06;5114677;28;19928;-70
2022/07/14 03:39:46;;;;;;;;;;;;;;;18.18;60.77;99786.41;5114692;28;19928;-71
2022/07/14 03:42:15;;;;;;;;;;;;;;;18.17;61.16;99788.13;5113167;28;20377;-70
2022/07/14 03:44:46;;;;;;;;;;;;;;;18.18;61.22;99786.41;5114285;28;20380;-70
2022/07/14 03:47:17;;;;;;;;;;;;;;;18.11;61.14;99788.31;5114285;28;19924;-69
2022/07/14 03:49:46;;;;;;;;;;;;;;;18.21;60.88;99784.53;5114603;28;19988;-69
2022/07/14 03:52:20;;;;;;;;;;;;;;;18.19;60.87;99777.75;5112930;28;20002;-69
2022/07/14 03:54:50;;;;;;;;;;;;;;;18.27;60.97;99784.38;5114326;28;19969;-71
2022/07/14 03:57:21;;;;;;;;;;;;;;;18.33;61.56;99788.53;5147327;27;19923;-70
2022/07/14 03:59:50;;;;;;;;;;;;;;;18.34;61.99;99785.88;5114101;28;19924;-70
2022/07/14 04:02:21;;;;;;;;;;;;;;;18.38;62.61;99795.22;5114315;28;19924;-68
2022/07/14 04:04:49;;;;;;;;;;;;;;;18.42;62.76;99796.84;5113201;28;19923;-68
2022/07/14 04:07:18;;;;;;;;;;;;;;;18.34;63.41;99798.81;5112853;28;20010;-69
2022/07/14 04:09:46;;;;;;;;;;;;;;;18.29;63.77;99802.41;5113113;28;19924;-69
2022/07/14 04:12:15;;;;;;;;;;;;;;;18.29;63.59;99792.94;5113920;28;19928;-70
2022/07/14 04:14:51;;;;;;;;;;;;;;;18.38;62.72;99778.91;5112857;28;19923;-71
2022/07/14 04:17:20;;;;;;;;;;;;;;;18.56;61.71;99778.34;5114270;28;19990;-70
2022/07/14 04:19:49;;;;;;;;;;;;;;;18.73;61.18;99771.75;5113951;28;19924;-71
2022/07/14 04:22:17;;;;;;;;;;;;;;;18.88;60.26;99779.91;5112989;28;19924;-70
2022/07/14 04:25:09;;;;;;;;;;;;;;;19.01;59.08;99776.00;5112738;28;20007;-71
2022/07/14 04:27:38;;;;;;;;;;;;;;;19.13;58.06;99775.59;5113824;28;20319;-70
2022/07/14 04:30:08;;;;;;;;;;;;;;;19.25;57.79;99760.50;5113900;28;20006;-70
2022/07/14 04:32:38;;;;;;;;;;;;;;;19.32;57.18;99768.88;5112604;28;19923;-69
2022/07/14 04:35:08;;;;;;;;;;;;;;;19.28;57.18;99785.41;5113881;28;20018;-71
2022/07/14 04:37:38;;;;;;;;;;;;;;;19.35;56.84;99798.09;5116428;28;19924;-71
2022/07/14 04:40:19;;;;;;;;;;;;;;;19.46;56.51;99800.34;5117542;28;19924;-69
2022/07/14 04:42:48;;;;;;;;;;;;;;;19.55;56.48;99799.19;5117375;28;19923;-70
2022/07/14 04:45:17;;;;;;;;;;;;;;;19.59;56.34;99798.16;5117635;28;19923;-70
2022/07/14 04:47:48;;;;;;;;;;;;;;;19.65;56.27;99801.38;5117690;28;20010;-70
2022/07/14 04:52:56;;;;;;;;;;;;;;;19.70;55.75;99814.19;5116601;28;20254;-71
2022/07/14 04:55:47;;;;;;;;;;;;;;;19.73;55.90;99809.72;5111217;28;19924;-69
2022/07/14 04:58:26;;;;;;;;;;;;;;;19.72;56.83;99812.38;5117133;28;19924;-71
2022/07/14 05:00:58;;;;;;;;;;;;;;;19.73;57.48;99804.56;5117094;28;20007;-71
2022/07/14 05:03:34;;;;;;;;;;;;;;;19.76;57.21;99799.28;5117314;28;19935;-70
2022/07/14 05:06:02;;;;;;;;;;;;;;;19.77;57.24;99793.16;5081435;28;19924;-69
2022/07/14 05:08:32;;;;;;;;;;;;;;;19.80;57.15;99790.47;5117294;28;20006;-72
2022/07/14 05:11:01;;;;;;;;;;;;;;;19.86;56.91;99805.81;5150162;27;19973;-69
2022/07/14 05:13:30;;;;;;;;;;;;;;;19.94;56.77;99808.94;5115572;28;19924;-70
2022/07/14 05:15:59;;;;;;;;;;;;;;;20.00;56.30;99806.16;5115586;28;20449;-71
2022/07/14 05:18:28;;;;;;;;;;;;;;;20.08;56.01;99799.84;5115485;28;19931;-70
2022/07/14 05:20:58;;;;;;;;;;;;;;;20.14;55.93;99804.78;5115789;28;20349;-69
2022/07/14 05:23:29;;;;;;;;;;;;;;;20.22;56.02;99797.56;5116646;28;19931;-70
2022/07/14 05:25:59;;;;;;;;;;;;;;;20.36;55.65;99800.50;5116616;28;20273;-71
2022/07/14 05:28:27;;;;;;;;;;;;;;;20.44;55.36;99793.28;5115128;28;19931;-70
2022/07/14 05:30:58;;;;;;;;;;;;;;;20.47;54.84;99790.53;5116497;28;19924;-70
2022/07/14 05:33:37;;;;;;;;;;;;;;;20.53;54.53;99785.13;5116698;28;20258;-69
2022/07/14 05:36:09;;;;;;;;;;;;;;;20.58;54.48;99780.59;5116370;28;19924;-69
2022/07/14 05:38:38;;;;;;;;;;;;;;;20.64;54.06;99775.16;5116716;28;20434;-70
2022/07/14 05:41:08;;;;;;;;;;;;;;;20.73;54.14;99768.78;5116290;28;19931;-71
2022/07/14 05:43:37;;;;;;;;;;;;;;;20.82;53.69;99766.66;5116170;28;19924;-69
2022/07/14 05:46:07;;;;;;;;;;;;;;;20.88;53.88;99763.78;5115242;28;20427;-70
2022/07/14 05:48:38;;;;;;;;;;;;;;;20.85;54.01;99761.31;5114974;28;19924;-70
2022/07/14 05:51:11;;;;;;;;;;;;;;;20.85;54.14;99773.47;5116119;28;19924;-69
2022/07/14 05:53:43;;;;;;;;;;;;;;;20.95;54.33;99777.34;5116363;28;19936;-70
2022/07/14 05:56:13;;;;;;;;;;;;;;;20.93;54.38;99767.03;5115943;28;20018;-70
2022/07/14 05:58:41;;;;;;;;;;;;;;;20.95;54.30;99785.97;5115015;28;20365;-70
2022/07/14 06:01:10;;;;;;;;;;;;;;;21.02;54.34;99782.22;5115895;28;19931;-70
2022/07/14 06:03:39;;;;;;;;;;;;;;;21.15;54.53;99791.25;5114590;28;19930;-69
2022/07/14 06:06:09;;;;;;;;;;;;;;;21.38;54.49;99792.03;5115687;28;19988;-69
2022/07/14 06:08:40;;;;;;;;;;;;;;;21.57;53.61;99779.94;5115135;28;19935;-70
2022/07/14 06:11:10;;;;;;;;;;;;;;;21.70;52.67;99778.44;5115745;28;19974;-72
2022/07/14 06:13:41;;;;;;;;;;;;;;;21.81;52.13;99782.25;5114450;28;19930;-70
2022/07/14 06:16:10;;;;;;;;;;;;;;;21.89;52.11;99781.94;5114701;28;19946;-69
2022/07/14 06:18:39;;;;;;;;;;;;;;;21.99;51.96;99772.81;5114266;28;19923;-70
2022/07/14 06:21:08;;;;;;;;;;;;;;;22.19;52.19;99779.72;5114521;28;19923;-69
2022/07/14 06:23:38;;;;;;;;;;;;;;;22.22;51.54;99779.59;5114606;28;19924;-70
2022/07/14 06:26:11;;;;;;;;;;;;;;;22.28;51.06;99779.28;5115637;28;20281;-69
2022/07/14 06:28:43;;;;;;;;;;;;;;;22.41;50.83;99786.41;5115273;28;20011;-71
2022/07/14 06:31:13;;;;;;;;;;;;;;;22.41;52.30;99796.81;5114575;28;19924;-69
2022/07/14 06:33:43;;;;;;;;;;;;;;;22.20;53.87;99797.84;5115616;28;20379;-70
2022/07/14 06:36:31;;;;;;;;;;;;;;;22.10;54.45;99796.56;5114761;28;19924;-68
2022/07/14 06:39:00;;;;;;;;;;;;;;;22.14;54.90;99795.53;5114195;28;20365;-70
2022/07/14 06:41:30;;;;;;;;;;;;;;;22.09;52.96;99789.69;5115413;28;19923;-72
2022/07/14 06:43:59;;;;;;;;;;;;;;;22.10;51.93;99790.53;5113810;28;20014;-70
2022/07/14 06:46:36;;;;;;;;;;;;;;;22.09;52.16;99781.91;5113834;28;19923;-71
2022/07/14 06:49:05;;;;;;;;;;;;;;;22.13;51.05;99793.84;5114934;28;20387;-72
2022/07/14 06:51:33;;;;;;;;;;;;;;;22.20;50.95;99792.63;5113134;28;19977;-68
2022/07/14 06:54:03;;;;;;;;;;;;;;;22.25;50.58;99789.81;5113740;28;19924;-70
2022/07/14 06:56:33;;;;;;;;;;;;;;;22.26;50.30;99784.56;5115048;28;19927;-69
2022/07/14 06:59:01;;;;;;;;;;;;;;;22.29;50.31;99780.97;5112102;28;19953;-70
2022/07/14 07:01:29;;;;;;;;;;;;;;;22.31;50.08;99780.00;5103481;28;19966;-70
2022/07/14 07:03:58;;;;;;;;;;;;;;;22.35;50.24;99780.69;5094690;28;19924;-70
2022/07/14 07:09:06;;;;;;;;;;;;;;;22.36;50.44;99780.59;5131724;27;20381;-69
2022/07/14 07:11:36;;;;;;;;;;;;;;;22.32;50.59;99779.06;5114904;28;19928;-69
2022/07/14 07:14:05;;;;;;;;;;;;;;;22.40;50.82;99776.94;5108042;28;20022;-70
2022/07/14 07:16:34;;;;;;;;;;;;;;;22.39;50.75;99767.44;5099833;28;19973;-71
2022/07/14 07:19:02;;;;;;;;;;;;;;;22.39;50.56;99770.06;5094069;28;19932;-70
2022/07/14 07:21:30;;;;;;;;;;;;;;;22.37;50.17;99758.88;5098186;28;19977;-69
2022/07/14 07:23:59;;;;;;;;;;;;;;;22.41;50.17;99755.22;5113171;28;20297;-70
2022/07/14 07:26:27;;;;;;;;;;;;;;;22.46;49.61;99761.03;5107983;28;19924;-70
2022/07/14 07:28:57;;;;;;;;;;;;;;;22.54;49.30;99769.31;5096641;28;20370;-70
2022/07/14 07:31:31;;;;;;;;;;;;;;;22.58;49.06;99768.25;5093931;28;19924;-71
2022/07/14 07:34:00;;;;;;;;;;;;;;;22.60;49.41;99760.38;5094234;28;19931;-70
2022/07/14 07:36:28;;;;;;;;;;;;;;;22.67;49.38;99754.81;5093691;28;19998;-70
2022/07/14 07:38:57;;;;;;;;;;;;;;;22.80;49.24;99751.63;5094090;28;19928;-69
2022/07/14 07:41:25;;;;;;;;;;;;;;;22.76;48.89;99745.75;5106885;28;20018;-70
2022/07/14 07:43:54;;;;;;;;;;;;;;;22.83;49.19;99741.91;5114828;28;20324;-70
2022/07/14 07:46:25;;;;;;;;;;;;;;;22.87;49.24;99751.25;5108817;28;20293;-70
2022/07/14 07:48:54;;;;;;;;;;;;;;;22.94;49.21;99754.41;5105533;28;20274;-70
2022/07/14 07:51:23;;;;;;;;;;;;;;;22.99;49.13;99762.81;5110537;28;19931;-73
2022/07/14 07:53:52;;;;;;;;;;;;;;;23.01;49.00;99753.19;5094232;28;19985;-68
2022/07/14 07:56:20;;;;;;;;;;;;;;;23.04;49.03;99755.59;5093684;28;19977;-68
2022/07/14 07:58:49;;;;;;;;;;;;;;;23.11;49.17;99754.38;5093707;28;19997;-72
2022/07/14 08:01:17;;;;;;;;;;;;;;;23.24;49.23;99747.63;5102103;28;19980;-72
2022/07/14 08:03:47;;;;;;;;;;;;;;;23.35;49.16;99760.97;5114441;28;19988;-71
2022/07/14 08:06:15;;;;;;;;;;;;;;;23.45;49.17;99756.97;5114036;28;19959;-70
2022/07/14 08:09:04;;;;;;;;;;;;;;;23.55;48.81;99757.34;5112096;28;19966;-70
2022/07/14 08:11:33;;;;;;;;;;;;;;;23.63;48.99;99745.59;5117054;28;19928;-70
2022/07/14 08:14:02;;;;;;;;;;;;;;;23.69;48.96;99747.88;5117660;28;19923;-71
2022/07/14 08:16:30;;;;;;;;;;;;;;;23.84;48.96;99743.59;5117349;28;20010;-70
2022/07/14 08:19:00;;;;;;;;;;;;;;;24.08;49.09;99737.09;5117276;28;20385;-72
2022/07/14 08:21:30;;;;;;;;;;;;;;;24.28;48.95;99736.00;5117499;28;20389;-70
2022/07/14 08:23:58;;;;;;;;;;;;;;;24.37;48.34;99730.25;5103697;28;20399;-68
2022/07/14 08:26:26;;;;;;;;;;;;;;;24.33;48.24;99732.19;5097583;28;19931;-70
2022/07/14 08:28:55;;;;;;;;;;;;;;;24.36;48.10;99724.19;5114976;28;19931;-68
2022/07/14 08:31:24;;;;;;;;;;;;;;;24.41;48.06;99723.91;5117344;28;19956;-70
2022/07/14 08:33:52;;;;;;;;;;;;;;;24.47;48.07;99723.59;5110221;28;20471;-68
2022/07/14 08:36:23;;;;;;;;;;;;;;;24.56;47.94;99720.44;5107049;28;20315;-71
2022/07/14 08:38:51;;;;;;;;;;;;;;;24.66;47.81;99708.56;5098334;28;20374;-70
2022/07/14 08:41:19;;;;;;;;;;;;;;;24.81;48.00;99707.66;5097346;28;19946;-67
2022/07/14 08:43:49;;;;;;;;;;;;;;;24.88;47.58;99713.41;5096081;28;19935;-70
2022/07/14 08:46:18;;;;;;;;;;;;;;;24.92;47.87;99707.06;5097340;28;20053;-68
2022/07/14 08:48:48;;;;;;;;;;;;;;;24.99;47.57;99708.38;5096929;28;19970;-69
2022/07/14 08:51:17;;;;;;;;;;;;;;;25.08;47.75;99706.06;5097428;28;19924;-67
2022/07/14 08:53:47;;;;;;;;;;;;;;;25.19;47.05;99703.63;5097064;28;20286;-70
2022/07/14 08:56:15;;;;;;;;;;;;;;;25.24;47.33;99698.97;5097337;28;20354;-69
2022/07/14 08:58:44;;;;;;;;;;;;;;;25.40;46.77;99695.44;5097084;28;19973;-69
2022/07/14 09:01:13;;;;;;;;;;;;;;;25.45;45.99;99699.50;5097839;28;19975;-70
2022/07/14 09:03:42;;;;;;;;;;;;;;;25.55;46.46;99694.53;5096301;28;20369;-68
2022/07/14 09:06:41;;;;;;;;;;;;;;;25.66;45.84;99686.84;5096434;28;20374;-70
2022/07/14 09:09:11;;;;;;;;;;;;;;;25.77;45.68;99694.88;5096879;28;20408;-70
2022/07/14 09:11:48;;;;;;;;;;;;;;;25.81;45.06;99701.59;5095457;28;20454;-70
2022/07/14 09:14:25;;;;;;;;;;;;;;;25.83;45.54;99689.25;5108646;28;19923;-68
2022/07/14 09:16:53;;;;;;;;;;;;;;;25.90;45.64;99686.16;5117589;28;19980;-67
2022/07/14 09:19:22;;;;;;;;;;;;;;;26.06;45.20;99685.19;5109504;28;20277;-68
2022/07/14 09:21:54;;;;;;;;;;;;;;;26.19;44.88;99678.25;5101046;28;19924;-67
2022/07/14 09:24:25;;;;;;;;;;;;;;;26.33;44.97;99673.81;5101471;28;19924;-67
2022/07/14 09:26:56;;;;;;;;;;;;;;;26.59;44.10;99675.53;5116472;28;20348;-67
2022/07/14 09:29:29;;;;;;;;;;;;;;;26.85;43.79;99676.44;5095705;28;19924;-66
2022/07/14 09:31:59;;;;;;;;;;;;;;;27.10;43.08;99673.00;5102144;28;19951;-69
2022/07/14 09:34:29;;;;;;;;;;;;;;;27.42;41.97;99666.41;5106334;28;19932;-69
2022/07/14 09:37:15;;;;;;;;;;;;;;;27.63;41.15;99649.16;5107352;28;20022;-70
2022/07/14 09:39:54;;;;;;;;;;;;;;;27.96;40.78;99658.16;5102426;28;20329;-66
2022/07/14 09:42:44;;;;;;;;;;;;;;;28.14;40.54;99651.63;5106498;28;19938;-70
2022/07/14 09:45:14;;;;;;;;;;;;;;;28.17;40.73;99649.59;5100010;28;19947;-68
2022/07/14 09:47:52;;;;;;;;;;;;;;;28.18;40.31;99645.19;5095801;28;19931;-69
2022/07/14 09:50:32;;;;;;;;;;;;;;;28.14;40.66;99649.84;5105477;28;19952;-67
2022/07/14 09:53:10;;;;;;;;;;;;;;;28.13;40.82;99647.28;5106290;28;19931;-68
2022/07/14 09:55:39;;;;;;;;;;;;;;;28.08;40.45;99650.25;5101818;28;19959;-69
2022/07/14 09:58:10;;;;;;;;;;;;;;;27.97;40.36;99644.09;5097679;28;19966;-66
2022/07/14 10:00:41;;;;;;;;;;;;;;;27.89;40.45;99642.88;5104519;28;19985;-66
2022/07/14 10:03:09;;;;;;;;;;;;;;;27.88;40.55;99643.81;5095511;28;19928;-69
2022/07/14 10:05:38;;;;;;;;;;;;;;;27.92;40.18;99632.16;5095755;28;19924;-69
2022/07/14 10:08:08;;;;;;;;;;;;;;;27.90;40.22;99631.44;5095987;28;19928;-69
2022/07/14 10:10:37;;;;;;;;;;;;;;;27.86;40.02;99632.59;5099649;28;19924;-67
2022/07/14 10:13:05;;;;;;;;;;;;;;;27.88;40.55;99628.06;5095514;28;19950;-67
2022/07/14 10:15:41;;;;;;;;;;;;;;;27.85;40.20;99628.31;5095265;28;19931;-66
2022/07/14 10:18:10;;;;;;;;;;;;;;;27.88;40.00;99629.88;5095877;28;19959;-67
2022/07/14 10:20:39;;;;;;;;;;;;;;;27.93;39.71;99625.94;5095102;28;19931;-66
2022/07/14 10:23:09;;;;;;;;;;;;;;;27.95;39.07;99617.97;5095051;28;19963;-68
2022/07/14 10:25:37;;;;;;;;;;;;;;;28.00;39.16;99625.53;5095121;28;19924;-67
2022/07/14 10:28:06;;;;;;;;;;;;;;;28.05;38.94;99615.53;5104432;28;19923;-69
2022/07/14 10:30:37;;;;;;;;;;;;;;;28.09;39.04;99616.97;5096290;28;19923;-68
2022/07/14 10:33:10;;;;;;;;;;;;;;;28.16;38.34;99615.56;5111858;28;20297;-68
2022/07/14 10:35:50;;;;;;;;;;;;;;;28.29;38.81;99611.09;5113157;28;20412;-68
2022/07/14 10:38:31;;;;;;;;;;;;;;;28.40;38.72;99608.50;5104186;28;19970;-68
2022/07/14 10:41:05;;;;;;;;;;;;;;;28.50;38.00;99609.50;5094817;28;20019;-66
2022/07/14 10:43:48;;;;;;;;;;;;;;;28.74;37.86;99617.34;5095187;28;20001;-67
2022/07/14 10:46:33;;;;;;;;;;;;;;;29.19;37.09;99605.91;5094996;28;20014;-66
2022/07/14 10:49:06;;;;;;;;;;;;;;;29.58;36.48;99599.28;5094959;28;20399;-68
2022/07/14 10:51:43;;;;;;;;;;;;;;;29.90;35.48;99589.63;5094660;28;19955;-66
2022/07/14 10:54:13;;;;;;;;;;;;;;;30.22;34.95;99592.25;5102405;28;20388;-67
2022/07/14 10:57:13;;;;;;;;;;;;;;;30.50;34.15;99587.22;5113546;28;19928;-69
2022/07/14 10:59:42;;;;;;;;;;;;;;;30.67;33.73;99574.41;5114492;28;20006;-70
2022/07/14 11:02:22;;;;;;;;;;;;;;;30.74;32.48;99568.50;5114823;28;19928;-69
2022/07/14 11:05:01;;;;;;;;;;;;;;;31.00;32.15;99555.75;5113757;28;20358;-68
2022/07/14 11:07:36;;;;;;;;;;;;;;;31.17;30.88;99547.16;5104543;28;19928;-69
2022/07/14 11:10:06;;;;;;;;;;;;;;;31.34;30.03;99554.44;5108217;28;19924;-71
2022/07/14 11:12:34;;;;;;;;;;;;;;;31.59;30.13;99553.13;5103728;28;19931;-66
2022/07/14 11:15:02;;;;;;;;;;;;;;;31.74;30.04;99557.06;5105801;28;19924;-68
2022/07/14 11:17:40;;;;;;;;;;;;;;;31.79;29.98;99539.78;5094221;28;19924;-67
2022/07/14 11:20:11;;;;;;;;;;;;;;;31.97;30.22;99533.81;5096421;28;19924;-68
2022/07/14 11:22:42;;;;;;;;;;;;;;;32.03;30.82;99546.50;5106220;28;19971;-69
2022/07/14 11:25:26;;;;;;;;;;;;;;;31.82;30.32;99543.16;5097629;28;20443;-69
2022/07/14 11:27:54;;;;;;;;;;;;;;;31.54;30.33;99534.22;5094358;28;20332;-68
2022/07/14 11:30:28;;;;;;;;;;;;;;;31.40;30.13;99534.59;5094428;28;20314;-67
2022/07/14 11:32:58;;;;;;;;;;;;;;;31.22;30.56;99528.31;5102313;28;19931;-69
2022/07/14 11:38:27;;;;;;;;;;;;;;;31.45;30.73;99514.78;5109065;28;20436;-68
2022/07/14 11:40:56;;;;;;;;;;;;;;;31.84;30.00;99504.25;5093844;28;19946;-68
2022/07/14 11:43:36;;;;;;;;;;;;;;;32.17;29.57;99503.81;5093861;28;19924;-69
2022/07/14 11:46:06;;;;;;;;;;;;;;;32.42;28.83;99506.66;5106671;28;19966;-70
2022/07/14 11:48:36;;;;;;;;;;;;;;;32.25;27.93;99498.66;5110836;28;19977;-67
2022/07/14 11:51:06;;;;;;;;;;;;;;;31.97;28.36;99500.34;5106988;28;19924;-68
2022/07/14 11:53:36;;;;;;;;;;;;;;;31.69;28.02;99502.03;5107111;28;19939;-68
2022/07/14 11:56:06;;;;;;;;;;;;;;;31.46;27.83;99500.59;5111427;28;19956;-68
2022/07/14 11:58:37;;;;;;;;;;;;;;;31.39;28.10;99494.19;5111849;28;19923;-68
2022/07/14 12:01:07;;;;;;;;;;;;;;;31.57;27.49;99495.22;5107187;28;20425;-67
2022/07/14 12:03:35;;;;;;;;;;;;;;;31.81;27.04;99478.94;5098145;28;19939;-68
2022/07/14 12:06:04;;;;;;;;;;;;;;;31.87;26.61;99477.53;5107592;28;20018;-72
2022/07/14 12:08:35;;;;;;;;;;;;;;;31.99;26.82;99479.06;5118440;27;19946;-68
2022/07/14 12:11:08;;;;;;;;;;;;;;;32.25;27.07;99464.31;5118325;28;19931;-71
2022/07/14 12:13:47;;;;;;;;;;;;;;;32.60;26.81;99461.84;5118139;28;19973;-67
2022/07/14 12:16:16;;;;;;;;;;;;;;;32.86;26.04;99452.22;5111086;28;20391;-69
2022/07/14 12:18:44;;;;;;;;;;;;;;;33.03;25.28;99448.81;5097850;28;20281;-69
2022/07/14 12:21:13;;;;;;;;;;;;;;;33.17;24.85;99449.28;5097767;28;19956;-68
2022/07/14 12:23:51;;;;;;;;;;;;;;;33.09;24.81;99458.78;5097748;28;20312;-68
2022/07/14 12:26:22;;;;;;;;;;;;;;;32.90;24.91;99453.59;5097415;28;19931;-68
2022/07/14 12:28:51;;;;;;;;;;;;;;;32.77;25.43;99447.84;5097299;28;20007;-69
2022/07/14 12:31:19;;;;;;;;;;;;;;;32.69;25.14;99442.44;5097691;28;20323;-70
2022/07/14 12:33:50;;;;;;;;;;;;;;;32.94;25.40;99440.91;5103339;28;19931;-71
2022/07/14 12:36:19;;;;;;;;;;;;;;;33.28;25.14;99444.59;5106105;28;19981;-72
2022/07/14 12:38:48;;;;;;;;;;;;;;;33.68;25.46;99439.72;5109728;28;19924;-67
2022/07/14 12:41:20;;;;;;;;;;;;;;;33.81;24.18;99433.19;5103800;28;19934;-68
2022/07/14 12:43:51;;;;;;;;;;;;;;;33.57;24.25;99431.19;5116619;28;19923;-70
2022/07/14 12:46:20;;;;;;;;;;;;;;;33.19;23.81;99426.13;5110604;28;19923;-69
2022/07/14 12:49:00;;;;;;;;;;;;;;;32.94;24.55;99417.94;5112327;28;19924;-69
2022/07/14 12:51:29;;;;;;;;;;;;;;;32.86;24.40;99425.78;5117366;28;20242;-70
2022/07/14 12:53:59;;;;;;;;;;;;;;;32.99;24.69;99414.84;5110365;28;19928;-69
2022/07/14 12:56:29;;;;;;;;;;;;;;;33.23;24.68;99427.53;5101557;28;20015;-67
2022/07/14 12:59:00;;;;;;;;;;;;;;;33.45;25.01;99421.78;5096686;28;19931;-68
2022/07/14 13:01:28;;;;;;;;;;;;;;;33.42;24.69;99427.38;5096833;28;19924;-69
2022/07/14 13:03:58;;;;;;;;;;;;;;;33.21;25.06;99426.84;5096645;28;19931;-69
2022/07/14 13:06:27;;;;;;;;;;;;;;;33.16;25.28;99426.47;5096669;28;19963;-68
2022/07/14 13:08:56;;;;;;;;;;;;;;;33.27;25.16;99415.63;5096265;28;19924;-69
2022/07/14 13:11:29;;;;;;;;;;;;;;;33.42;25.15;99419.44;5095547;28;19924;-68
2022/07/14 13:14:00;;;;;;;;;;;;;;;33.58;25.30;99417.78;5096402;28;20022;-70
2022/07/14 13:16:30;;;;;;;;;;;;;;;33.60;24.07;99414.97;5096516;28;19924;-71